sim
Sign-in with your pilot id or email,
or register
Callsign
Passwort

Schedule Details

Flight Number: OEO7682
Departure: Munich Airport (EDDM) at 11:10
Arrival: New York John F. Kennedy International Airport (KJFK) at 20:30

Weather Information
Getting current METAR information for EDDM 241020Z 25009KT 9999 FEW026 19/14 Q1010 NOSIG
Getting current METAR information for KJFK 240951Z 03003KT 10SM BKN250 14/13 A2995 RMK AO2 SLP141 T01440128 $

Schedule Frequency

Route Map